createdAt,value
2023-04-30T00:02:20.253Z,11.07
2023-04-30T00:04:47.456Z,8.93
2023-04-30T00:07:14.662Z,7.88
2023-04-30T00:09:41.620Z,11.25
2023-04-30T00:12:08.649Z,8.07
2023-04-30T00:14:36.583Z,7.28
2023-04-30T00:17:03.675Z,9.00
2023-04-30T00:19:30.702Z,17.80
2023-04-30T00:21:57.505Z,7.55
2023-04-30T00:24:24.495Z,17.90
2023-04-30T00:26:51.298Z,12.65
2023-04-30T00:29:18.174Z,8.20
2023-04-30T00:31:45.082Z,9.25
2023-04-30T00:34:12.069Z,10.77
2023-04-30T00:36:46.228Z,10.75
2023-04-30T00:39:13.340Z,8.70
2023-04-30T00:41:41.491Z,9.23
2023-04-30T00:44:08.628Z,8.00
2023-04-30T00:46:35.839Z,9.93
2023-04-30T00:49:05.233Z,12.77
2023-04-30T00:51:33.476Z,9.95
2023-04-30T00:54:03.670Z,7.78
2023-04-30T00:56:31.924Z,9.88
2023-04-30T00:58:59.768Z,8.48
2023-04-30T01:01:29.173Z,8.90
2023-04-30T01:03:56.466Z,12.00
2023-04-30T01:06:25.706Z,8.93
2023-04-30T01:08:53.454Z,11.38
2023-04-30T01:11:38.548Z,9.43
2023-04-30T01:14:37.128Z,9.52
2023-04-30T01:17:06.624Z,10.68
2023-04-30T01:19:44.575Z,11.50
2023-04-30T01:22:27.198Z,9.27
2023-04-30T01:24:54.805Z,7.82
2023-04-30T01:27:43.459Z,11.18
2023-04-30T01:30:12.029Z,8.25
2023-04-30T01:32:38.931Z,9.60
2023-04-30T01:35:06.224Z,11.40
2023-04-30T01:38:00.239Z,8.10
2023-04-30T01:40:50.015Z,10.73
2023-04-30T01:43:35.785Z,8.35
2023-04-30T01:46:17.836Z,8.82
2023-04-30T01:49:09.317Z,9.02
2023-04-30T01:54:27.855Z,12.50
2023-04-30T01:57:05.014Z,8.93
2023-04-30T01:59:38.538Z,7.15
2023-04-30T02:02:06.871Z,5.97
2023-04-30T02:04:33.972Z,7.00
2023-04-30T02:07:01.243Z,9.18
2023-04-30T02:09:28.111Z,8.05
2023-04-30T02:11:54.892Z,8.70
2023-04-30T02:14:21.880Z,8.38
2023-04-30T02:16:52.514Z,7.88
2023-04-30T02:19:19.415Z,8.52
2023-04-30T02:21:46.559Z,7.93
2023-04-30T02:24:13.431Z,6.05
2023-04-30T02:26:40.380Z,9.52
2023-04-30T02:29:07.284Z,13.05
2023-04-30T02:31:34.113Z,12.27
2023-04-30T02:34:01.096Z,8.10
2023-04-30T02:36:27.868Z,6.10
2023-04-30T02:38:54.771Z,10.60
2023-04-30T02:41:21.840Z,7.05
2023-04-30T02:43:48.876Z,9.63
2023-04-30T02:46:15.788Z,6.75
2023-04-30T02:48:42.774Z,10.25
2023-04-30T02:51:10.004Z,6.82
2023-04-30T02:53:36.822Z,8.48
2023-04-30T02:56:03.910Z,8.25
2023-04-30T02:58:30.849Z,6.28
2023-04-30T03:00:57.698Z,9.15
2023-04-30T03:03:24.696Z,7.25
2023-04-30T03:05:51.707Z,7.45
2023-04-30T03:08:18.642Z,10.73
2023-04-30T03:10:45.604Z,5.65
2023-04-30T03:13:12.624Z,10.90
2023-04-30T03:15:39.437Z,6.38
2023-04-30T03:18:06.321Z,7.57
2023-04-30T03:20:33.244Z,8.57
2023-04-30T03:23:00.417Z,7.75
2023-04-30T03:25:27.366Z,9.35
2023-04-30T03:27:54.407Z,10.00
2023-04-30T03:30:21.454Z,7.95
2023-04-30T03:32:48.621Z,9.70
2023-04-30T03:35:16.539Z,7.38
2023-04-30T03:37:43.503Z,7.68
2023-04-30T03:40:11.696Z,7.85
2023-04-30T03:42:38.995Z,6.75
2023-04-30T03:45:06.403Z,7.78
2023-04-30T03:47:33.888Z,6.00
2023-04-30T03:50:01.282Z,9.98
2023-04-30T03:52:28.375Z,7.28
2023-04-30T03:54:55.413Z,11.77
2023-04-30T03:57:22.677Z,19.08
2023-04-30T03:59:50.760Z,11.65
2023-04-30T04:02:18.004Z,14.95
2023-04-30T04:04:44.907Z,7.80
2023-04-30T04:07:12.281Z,15.95
2023-04-30T04:09:39.240Z,28.38
2023-04-30T04:12:06.915Z,24.88
2023-04-30T04:14:34.582Z,27.80
2023-04-30T04:17:05.734Z,19.48
2023-04-30T04:19:32.976Z,11.82
2023-04-30T04:22:00.961Z,16.35
2023-04-30T04:24:27.946Z,15.77
2023-04-30T04:26:54.874Z,11.93
2023-04-30T04:29:21.866Z,12.60
2023-04-30T04:31:52.265Z,15.82
2023-04-30T04:34:20.346Z,16.35
2023-04-30T04:36:47.594Z,22.10
2023-04-30T04:39:15.182Z,17.35
2023-04-30T04:41:42.636Z,12.43
2023-04-30T04:44:09.827Z,14.68
2023-04-30T04:46:40.092Z,15.43
2023-04-30T04:49:07.043Z,21.63
2023-04-30T04:51:35.424Z,16.23
2023-04-30T04:54:02.464Z,18.50
2023-04-30T04:56:29.265Z,11.60
2023-04-30T04:58:56.940Z,14.43
2023-04-30T05:01:24.065Z,18.40
2023-04-30T05:03:51.389Z,14.15
2023-04-30T05:06:19.699Z,19.90
2023-04-30T05:08:46.808Z,16.45
2023-04-30T05:11:15.533Z,15.20
2023-04-30T05:13:42.906Z,32.15
2023-04-30T05:16:09.930Z,25.45
2023-04-30T05:18:36.890Z,18.35
2023-04-30T05:21:04.466Z,22.63
2023-04-30T05:23:31.414Z,25.52
2023-04-30T05:25:58.308Z,27.90
2023-04-30T05:28:25.394Z,30.58
2023-04-30T05:30:52.181Z,20.85
2023-04-30T05:33:19.313Z,18.30
2023-04-30T05:35:46.158Z,15.93
2023-04-30T05:38:13.132Z,14.20
2023-04-30T05:40:40.867Z,10.95
2023-04-30T05:43:07.759Z,15.50
2023-04-30T05:45:35.039Z,13.48
2023-04-30T05:48:02.234Z,13.40
2023-04-30T05:50:29.320Z,13.55
2023-04-30T05:52:56.049Z,47.05
2023-04-30T05:55:23.108Z,8.75
2023-04-30T05:57:50.013Z,11.52
2023-04-30T06:00:17.078Z,8.10
2023-04-30T06:02:44.098Z,8.43
2023-04-30T06:05:12.402Z,8.13
2023-04-30T06:07:40.854Z,12.98
2023-04-30T06:10:09.441Z,6.25
2023-04-30T06:12:36.566Z,8.40
2023-04-30T06:15:03.935Z,10.10
2023-04-30T06:17:30.825Z,11.45
2023-04-30T06:20:01.051Z,13.98
2023-04-30T06:22:28.256Z,13.80
2023-04-30T06:24:55.332Z,10.65
2023-04-30T06:27:22.253Z,21.42
2023-04-30T06:29:49.202Z,14.57
2023-04-30T06:32:16.692Z,9.15
2023-04-30T06:34:43.699Z,8.05
2023-04-30T06:37:10.527Z,8.20
2023-04-30T06:39:37.755Z,11.57
2023-04-30T06:42:04.595Z,7.18
2023-04-30T06:44:31.850Z,10.57
2023-04-30T06:46:58.813Z,15.38
2023-04-30T06:49:25.996Z,11.20
2023-04-30T06:51:56.401Z,13.88
2023-04-30T06:54:23.507Z,23.40
2023-04-30T06:56:50.520Z,23.52
2023-04-30T06:59:26.193Z,22.27
2023-04-30T07:01:53.662Z,14.98
2023-04-30T07:04:36.597Z,25.33
2023-04-30T07:07:03.480Z,8.52
2023-04-30T07:09:30.859Z,8.35
2023-04-30T07:11:59.271Z,11.40
2023-04-30T07:14:26.220Z,10.20
2023-04-30T07:16:53.517Z,8.38
2023-04-30T07:19:20.699Z,10.45
2023-04-30T07:21:47.589Z,6.85
2023-04-30T07:24:14.495Z,6.35
2023-04-30T07:26:42.484Z,9.93
2023-04-30T07:29:09.937Z,11.57
2023-04-30T07:31:37.149Z,6.30
2023-04-30T07:34:03.951Z,9.45
2023-04-30T07:36:31.061Z,7.70
2023-04-30T07:38:57.951Z,15.05
2023-04-30T07:41:25.814Z,20.23
2023-04-30T07:43:52.833Z,12.60
2023-04-30T07:46:19.921Z,8.98
2023-04-30T07:48:46.769Z,6.82
2023-04-30T07:51:13.808Z,5.22
2023-04-30T07:53:40.778Z,6.38
2023-04-30T07:56:08.336Z,8.23
2023-04-30T07:58:35.456Z,13.52
2023-04-30T08:01:02.383Z,8.15
2023-04-30T08:03:29.444Z,11.65
2023-04-30T08:05:56.411Z,4.20
2023-04-30T08:08:24.722Z,6.28
2023-04-30T08:10:52.597Z,3.88
2023-04-30T08:13:23.385Z,5.68
2023-04-30T08:15:50.334Z,8.13
2023-04-30T08:18:17.496Z,3.60
2023-04-30T08:20:44.656Z,2.78
2023-04-30T08:23:11.564Z,4.22
2023-04-30T08:25:38.434Z,5.25
2023-04-30T08:28:07.059Z,3.58
2023-04-30T08:30:33.948Z,8.52
2023-04-30T08:33:00.923Z,4.78
2023-04-30T08:35:29.902Z,4.03
2023-04-30T08:37:57.534Z,6.38
2023-04-30T08:40:43.855Z,5.38
2023-04-30T08:43:14.471Z,3.97
2023-04-30T08:45:41.930Z,2.72
2023-04-30T08:48:15.779Z,5.13
2023-04-30T08:50:42.742Z,2.67
2023-04-30T08:53:11.560Z,4.10
2023-04-30T08:55:40.622Z,4.22
2023-04-30T08:58:10.382Z,2.92
2023-04-30T09:00:39.620Z,5.00
2023-04-30T09:03:08.432Z,4.45
2023-04-30T09:05:37.408Z,4.07
2023-04-30T09:08:04.680Z,4.65
2023-04-30T09:10:35.717Z,4.43
2023-04-30T09:13:10.283Z,7.25
2023-04-30T09:15:39.057Z,5.60
2023-04-30T09:18:18.235Z,3.45
2023-04-30T09:21:03.056Z,3.92
2023-04-30T09:23:30.811Z,2.58
2023-04-30T09:25:58.179Z,11.98
2023-04-30T09:28:26.772Z,5.15
2023-04-30T09:30:53.947Z,7.78
2023-04-30T09:33:21.029Z,4.90
2023-04-30T09:35:56.793Z,2.63
2023-04-30T09:38:32.447Z,5.68
2023-04-30T09:41:01.220Z,3.25
2023-04-30T09:43:29.364Z,3.15
2023-04-30T09:45:58.904Z,4.60
2023-04-30T09:48:31.627Z,4.68
2023-04-30T09:50:58.667Z,4.55
2023-04-30T09:53:25.784Z,5.25
2023-04-30T09:55:52.809Z,2.85
2023-04-30T09:58:20.123Z,3.05
2023-04-30T10:00:56.607Z,4.18
2023-04-30T10:03:24.226Z,2.85
2023-04-30T10:05:53.183Z,5.20
2023-04-30T10:08:34.183Z,3.47
2023-04-30T10:11:07.223Z,3.17
2023-04-30T10:13:51.780Z,3.55
2023-04-30T10:16:43.746Z,6.55
2023-04-30T10:19:19.812Z,4.70
2023-04-30T10:21:47.445Z,5.68
2023-04-30T10:24:15.941Z,5.57
2023-04-30T10:26:44.318Z,2.63
2023-04-30T10:29:13.344Z,2.33
2023-04-30T10:31:41.843Z,6.40
2023-04-30T10:34:33.688Z,2.08
2023-04-30T10:37:07.696Z,3.42
2023-04-30T10:39:41.752Z,4.05
2023-04-30T10:42:11.053Z,8.23
2023-04-30T10:44:50.804Z,3.38
2023-04-30T10:47:19.307Z,2.65
2023-04-30T10:49:48.375Z,2.67
2023-04-30T10:52:27.745Z,2.28
2023-04-30T10:54:58.030Z,2.38
2023-04-30T10:57:29.749Z,2.90
2023-04-30T11:00:08.643Z,1.52
2023-04-30T11:02:44.204Z,6.00
2023-04-30T11:05:12.746Z,3.38
2023-04-30T11:07:50.014Z,1.60
2023-04-30T11:10:21.196Z,3.60
2023-04-30T11:12:49.922Z,1.55
2023-04-30T11:15:20.343Z,3.00
2023-04-30T11:17:49.612Z,9.27
2023-04-30T11:20:21.850Z,2.03
2023-04-30T11:22:49.023Z,9.00
2023-04-30T11:25:20.050Z,3.65
2023-04-30T11:27:46.990Z,4.68
2023-04-30T11:30:18.690Z,4.75
2023-04-30T11:32:47.961Z,5.60
2023-04-30T11:35:19.237Z,4.22
2023-04-30T11:37:48.319Z,1.90
2023-04-30T11:40:15.721Z,4.55
2023-04-30T11:42:45.780Z,6.43
2023-04-30T11:45:17.819Z,5.03
2023-04-30T11:47:52.740Z,8.55
2023-04-30T11:50:27.449Z,2.70
2023-04-30T11:56:31.326Z,3.65
2023-04-30T11:58:58.829Z,3.75
2023-04-30T12:01:28.113Z,3.65
2023-04-30T12:03:57.547Z,2.65
2023-04-30T12:06:29.256Z,7.38
2023-04-30T12:08:57.387Z,6.40
2023-04-30T12:11:29.227Z,4.22
2023-04-30T12:14:00.845Z,2.08
2023-04-30T12:16:28.995Z,5.32
2023-04-30T12:18:56.212Z,3.63
2023-04-30T12:21:23.668Z,2.28
2023-04-30T12:23:50.861Z,2.90
2023-04-30T12:26:17.966Z,3.75
2023-04-30T12:28:48.209Z,5.28
2023-04-30T12:31:17.792Z,1.90
2023-04-30T12:33:44.822Z,2.92
2023-04-30T12:36:12.051Z,2.20
2023-04-30T12:38:44.171Z,2.08
2023-04-30T12:41:15.406Z,2.28
2023-04-30T12:46:09.505Z,2.78
2023-04-30T12:48:45.807Z,3.67
2023-04-30T12:51:12.708Z,2.40
2023-04-30T12:53:46.518Z,5.93
2023-04-30T12:56:16.615Z,3.42
2023-04-30T12:58:50.199Z,9.05
2023-04-30T13:01:19.563Z,5.25
2023-04-30T13:03:46.598Z,3.85
2023-04-30T13:06:13.968Z,2.65
2023-04-30T13:08:50.249Z,5.03
2023-04-30T13:11:26.288Z,4.40
2023-04-30T13:13:55.627Z,5.70
2023-04-30T13:16:24.622Z,6.68
2023-04-30T13:18:52.114Z,2.63
2023-04-30T13:21:19.049Z,5.43
2023-04-30T13:23:52.821Z,6.97
2023-04-30T13:26:21.925Z,3.15
2023-04-30T13:28:48.916Z,3.08
2023-04-30T13:31:15.918Z,3.85
2023-04-30T13:33:42.853Z,5.82
2023-04-30T13:36:09.796Z,7.40
2023-04-30T13:38:36.920Z,5.50
2023-04-30T13:41:03.799Z,7.35
2023-04-30T13:43:31.382Z,5.07
2023-04-30T13:45:58.954Z,4.05
2023-04-30T13:48:25.910Z,3.40
2023-04-30T13:50:52.916Z,2.33
2023-04-30T13:53:19.771Z,5.15
2023-04-30T13:55:46.783Z,3.95
2023-04-30T13:58:13.889Z,1.67
2023-04-30T14:00:41.304Z,3.65
2023-04-30T14:03:08.685Z,1.80
2023-04-30T14:05:36.357Z,2.00
2023-04-30T14:08:04.512Z,6.60
2023-04-30T14:10:32.264Z,5.55
2023-04-30T14:12:59.285Z,4.35
2023-04-30T14:15:26.206Z,7.13
2023-04-30T14:17:53.473Z,3.53
2023-04-30T14:20:20.538Z,3.38
2023-04-30T14:22:47.771Z,4.03
2023-04-30T14:25:14.703Z,12.13
2023-04-30T14:27:41.957Z,4.65
2023-04-30T14:30:09.418Z,5.70
2023-04-30T14:32:37.683Z,3.05
2023-04-30T14:35:05.541Z,6.57
2023-04-30T14:37:32.358Z,4.22
2023-04-30T14:40:00.668Z,22.17
2023-04-30T14:42:27.751Z,3.58
2023-04-30T14:44:54.594Z,7.53
2023-04-30T14:47:22.759Z,18.80
2023-04-30T14:49:52.177Z,4.95
2023-04-30T14:52:20.057Z,4.20
2023-04-30T14:54:47.249Z,5.68
2023-04-30T14:57:15.070Z,2.00
2023-04-30T14:59:42.058Z,9.68
2023-04-30T15:02:09.430Z,6.53
2023-04-30T15:04:36.398Z,4.60
2023-04-30T15:07:04.354Z,7.90
2023-04-30T15:09:31.498Z,6.18
2023-04-30T15:11:58.376Z,2.90
2023-04-30T15:14:25.309Z,2.40
2023-04-30T15:16:52.222Z,2.08
2023-04-30T15:19:19.061Z,2.53
2023-04-30T15:21:48.366Z,2.17
2023-04-30T15:24:16.270Z,4.55
2023-04-30T15:26:43.120Z,2.92
2023-04-30T15:29:10.684Z,2.35
2023-04-30T15:31:37.928Z,3.35
2023-04-30T15:34:04.957Z,6.05
2023-04-30T15:36:32.448Z,2.75
2023-04-30T15:38:59.648Z,4.03
2023-04-30T15:41:26.482Z,6.43
2023-04-30T15:43:53.530Z,5.47
2023-04-30T15:46:20.575Z,7.03
2023-04-30T15:48:47.589Z,4.20
2023-04-30T15:51:14.616Z,3.95
2023-04-30T15:53:41.539Z,2.67
2023-04-30T15:56:09.734Z,3.92
2023-04-30T15:58:36.799Z,3.05
2023-04-30T16:01:03.797Z,3.33
2023-04-30T16:03:31.649Z,3.42
2023-04-30T16:06:00.969Z,5.20
2023-04-30T16:08:28.532Z,5.25
2023-04-30T16:10:55.797Z,2.05
2023-04-30T16:13:22.695Z,9.35
2023-04-30T16:15:49.706Z,10.15
2023-04-30T16:18:16.923Z,4.20
2023-04-30T16:20:47.421Z,3.35
2023-04-30T16:23:14.688Z,4.23
2023-04-30T16:25:42.078Z,3.60
2023-04-30T16:28:09.003Z,2.08
2023-04-30T16:30:36.132Z,4.47
2023-04-30T16:33:03.200Z,5.25
2023-04-30T16:35:30.105Z,5.10
2023-04-30T16:37:57.196Z,5.30
2023-04-30T16:40:24.135Z,8.02
2023-04-30T16:42:51.020Z,6.53
2023-04-30T16:45:18.145Z,11.25
2023-04-30T16:47:45.605Z,3.58
2023-04-30T16:50:12.697Z,9.88
2023-04-30T16:52:39.703Z,9.40
2023-04-30T16:55:07.338Z,5.18
2023-04-30T16:57:34.412Z,6.25
2023-04-30T17:00:01.219Z,5.95
2023-04-30T17:02:28.262Z,3.70
2023-04-30T17:04:55.273Z,5.82
2023-04-30T17:07:22.206Z,5.78
2023-04-30T17:09:49.166Z,7.88
2023-04-30T17:12:15.957Z,10.50
2023-04-30T17:14:43.130Z,17.70
2023-04-30T17:17:10.006Z,20.40
2023-04-30T17:19:36.923Z,20.17
2023-04-30T17:22:03.943Z,16.25
2023-04-30T17:24:30.771Z,13.70
2023-04-30T17:26:59.510Z,42.97
2023-04-30T17:29:26.643Z,29.05
2023-04-30T17:31:53.617Z,22.52
2023-04-30T17:34:20.919Z,17.83
2023-04-30T17:36:50.079Z,15.18
2023-04-30T17:39:18.822Z,21.40
2023-04-30T17:41:45.961Z,38.72
2023-04-30T17:44:12.797Z,37.05
2023-04-30T17:46:40.340Z,34.95
2023-04-30T17:49:08.296Z,41.95
2023-04-30T17:51:35.609Z,26.60
2023-04-30T17:54:02.732Z,29.48
2023-04-30T17:56:31.401Z,208.10
2023-04-30T17:58:58.937Z,182.93
2023-04-30T18:01:49.215Z,62.78
2023-04-30T18:05:08.642Z,62.67
2023-04-30T18:08:00.506Z,32.38
2023-04-30T18:10:50.566Z,32.35
2023-04-30T18:13:17.407Z,20.83
2023-04-30T18:15:45.082Z,14.63
2023-04-30T18:18:12.019Z,17.27
2023-04-30T18:20:38.880Z,45.78
2023-04-30T18:23:08.522Z,39.80
2023-04-30T18:25:37.328Z,19.35
2023-04-30T18:28:04.381Z,8.10
2023-04-30T18:30:31.666Z,5.97
2023-04-30T18:32:59.052Z,8.55
2023-04-30T18:35:28.563Z,16.13
2023-04-30T18:38:46.149Z,17.17
2023-04-30T18:41:13.036Z,47.95
2023-04-30T18:43:42.582Z,46.67
2023-04-30T18:46:10.032Z,44.03
2023-04-30T18:48:37.052Z,34.67
2023-04-30T18:51:04.600Z,24.38
2023-04-30T18:53:31.668Z,22.88
2023-04-30T18:55:58.494Z,29.95
2023-04-30T18:58:25.463Z,26.98
2023-04-30T19:00:52.748Z,35.92
2023-04-30T19:03:20.076Z,29.75
2023-04-30T19:05:46.901Z,33.88
2023-04-30T19:08:13.890Z,31.70
2023-04-30T19:10:40.803Z,21.90
2023-04-30T19:13:07.898Z,16.65
2023-04-30T19:15:35.763Z,16.80
2023-04-30T19:18:25.159Z,9.27
2023-04-30T19:21:01.169Z,12.13
2023-04-30T19:23:32.520Z,9.43
2023-04-30T19:28:26.867Z,9.35
2023-04-30T19:30:55.610Z,7.05
2023-04-30T19:36:29.725Z,8.38
2023-04-30T19:38:56.752Z,13.00
2023-04-30T19:41:23.600Z,8.75
2023-04-30T19:43:52.399Z,10.02
2023-04-30T19:46:19.798Z,14.93
2023-04-30T19:48:46.850Z,10.27
2023-04-30T19:51:13.775Z,11.05
2023-04-30T19:53:40.684Z,5.88
2023-04-30T19:56:08.595Z,9.75
2023-04-30T19:58:35.829Z,13.88
2023-04-30T20:01:17.816Z,7.35
2023-04-30T20:03:45.139Z,17.60
2023-04-30T20:06:12.350Z,7.95
2023-04-30T20:08:39.327Z,10.43
2023-04-30T20:11:06.475Z,17.23
2023-04-30T20:13:33.576Z,24.08
2023-04-30T20:16:01.301Z,27.58
2023-04-30T20:18:28.339Z,29.75
2023-04-30T20:21:06.505Z,26.23
2023-04-30T20:23:33.502Z,18.80
2023-04-30T20:26:00.891Z,19.60
2023-04-30T20:28:28.119Z,15.10
2023-04-30T20:30:55.830Z,10.18
2023-04-30T20:33:59.519Z,13.25
2023-04-30T20:36:52.589Z,6.93
2023-04-30T20:39:24.951Z,10.38
2023-04-30T20:41:52.226Z,8.63
2023-04-30T20:44:19.028Z,18.10
2023-04-30T20:46:46.273Z,15.40
2023-04-30T20:49:14.693Z,9.77
2023-04-30T20:51:47.590Z,8.45
2023-04-30T20:56:50.222Z,5.13
2023-04-30T20:59:17.332Z,7.18
2023-04-30T21:01:44.146Z,8.23
2023-04-30T21:04:11.487Z,9.15
2023-04-30T21:06:38.437Z,10.82
2023-04-30T21:09:06.413Z,9.27
2023-04-30T21:11:33.801Z,6.40
2023-04-30T21:14:00.647Z,9.52
2023-04-30T21:16:28.131Z,11.57
2023-04-30T21:18:55.175Z,10.48
2023-04-30T21:21:31.481Z,11.10
2023-04-30T21:24:01.115Z,13.45
2023-04-30T21:26:28.496Z,12.85
2023-04-30T21:28:55.945Z,12.48
2023-04-30T21:31:23.830Z,11.98
2023-04-30T21:33:50.790Z,15.45
2023-04-30T21:36:18.105Z,12.60
2023-04-30T21:38:45.009Z,13.50
2023-04-30T21:41:16.393Z,14.48
2023-04-30T21:43:43.777Z,16.90
2023-04-30T21:46:10.993Z,13.15
2023-04-30T21:48:41.025Z,20.90
2023-04-30T21:51:12.679Z,14.90
2023-04-30T21:53:39.680Z,13.20
2023-04-30T21:56:11.324Z,23.70
2023-04-30T21:58:39.031Z,12.85
2023-04-30T22:01:06.380Z,14.13
2023-04-30T22:03:34.147Z,22.27
2023-04-30T22:06:01.630Z,19.73
2023-04-30T22:08:28.764Z,18.40
2023-04-30T22:10:59.950Z,16.10
2023-04-30T22:13:28.040Z,13.95
2023-04-30T22:15:55.717Z,16.17
2023-04-30T22:18:24.724Z,17.67
2023-04-30T22:20:52.407Z,15.10
2023-04-30T22:23:23.025Z,17.25
2023-04-30T22:25:50.586Z,20.30
2023-04-30T22:28:19.257Z,18.48
2023-04-30T22:30:46.384Z,13.18
2023-04-30T22:33:13.270Z,17.17
2023-04-30T22:35:40.395Z,23.90
2023-04-30T22:38:07.808Z,27.30
2023-04-30T22:40:38.572Z,24.40
2023-04-30T22:43:06.268Z,30.45
2023-04-30T22:45:37.224Z,22.13
2023-04-30T22:48:04.855Z,24.75
2023-04-30T22:50:32.265Z,24.85
2023-04-30T22:52:59.631Z,22.00
2023-04-30T22:55:27.261Z,19.10
2023-04-30T22:57:54.156Z,15.90
2023-04-30T23:00:21.405Z,15.20
2023-04-30T23:02:48.790Z,16.35
2023-04-30T23:05:15.779Z,13.38
2023-04-30T23:07:42.676Z,22.08
2023-04-30T23:10:10.251Z,19.95
2023-04-30T23:12:37.115Z,20.65
2023-04-30T23:15:04.457Z,17.88
2023-04-30T23:17:31.322Z,18.40
2023-04-30T23:19:58.778Z,18.83
2023-04-30T23:22:25.785Z,15.30
2023-04-30T23:24:52.750Z,16.83
2023-04-30T23:27:19.600Z,13.85
2023-04-30T23:29:47.844Z,14.95
2023-04-30T23:32:14.731Z,12.43
2023-04-30T23:34:41.694Z,7.85
2023-04-30T23:37:08.944Z,14.43
2023-04-30T23:39:36.153Z,11.30
2023-04-30T23:42:02.952Z,9.05
2023-04-30T23:44:32.223Z,8.35
2023-04-30T23:47:00.939Z,7.63
2023-04-30T23:49:27.997Z,10.07
2023-04-30T23:51:54.952Z,8.68
2023-04-30T23:54:22.405Z,8.02
2023-04-30T23:56:49.758Z,9.85
2023-04-30T23:59:16.774Z,7.30
